Time;durP1;ratioP1;P1;durP2;ratioP2;P2;SDS_P1;SDS_P2;PMS_P1;PMS_P2;Temp;Humidity;BMP_temperature;BMP_pressure;BME280_temperature;BME280_humidity;BME280_pressure;Samples;Min_cycle;Max_cycle;Signal;HPM_P1;HPM_P2
2021/06/26 00:00:08;;;;;;;12.15;7.00;;;16.90;99.90;;;;;;5053118;28;20048;-82
2021/06/26 00:02:34;;;;;;;13.32;6.95;;;16.90;99.90;;;;;;5053157;28;20021;-82
2021/06/26 00:04:59;;;;;;;10.13;7.50;;;16.90;99.90;;;;;;5051848;28;20387;-82
2021/06/26 00:07:25;;;;;;;10.38;6.75;;;16.90;99.90;;;;;;5052084;28;20491;-82
2021/06/26 00:09:51;;;;;;;10.82;6.60;;;17.00;99.90;;;;;;5053102;28;20044;-82
2021/06/26 00:12:16;;;;;;;14.55;6.88;;;16.80;99.90;;;;;;5051779;28;20116;-82
2021/06/26 00:14:45;;;;;;;13.32;7.00;;;16.60;99.90;;;;;;5051799;28;20035;-82
2021/06/26 00:17:11;;;;;;;9.95;6.80;;;16.40;99.90;;;;;;5051651;28;20029;-82
2021/06/26 00:19:36;;;;;;;9.63;6.85;;;16.30;99.90;;;;;;5051958;28;20556;-82
2021/06/26 00:22:02;;;;;;;7.53;6.72;;;16.30;99.90;;;;;;5053188;28;20022;-82
2021/06/26 00:24:28;;;;;;;9.15;6.75;;;16.40;99.90;;;;;;5052913;28;20036;-82
2021/06/26 00:26:54;;;;;;;9.93;6.93;;;16.60;99.90;;;;;;5055943;28;20100;-82
2021/06/26 00:29:20;;;;;;;10.70;6.75;;;16.80;99.90;;;;;;5056899;28;20052;-82
2021/06/26 00:31:46;;;;;;;8.20;6.95;;;16.80;99.90;;;;;;5057154;28;20028;-82
2021/06/26 00:34:11;;;;;;;9.45;7.30;;;16.90;99.90;;;;;;5056725;28;20040;-82
2021/06/26 00:36:37;;;;;;;10.52;7.30;;;16.90;99.90;;;;;;5055268;28;20044;-82
2021/06/26 00:39:04;;;;;;;9.45;6.82;;;16.90;99.90;;;;;;5056740;28;20050;-82
2021/06/26 00:41:30;;;;;;;13.75;7.50;;;16.80;99.90;;;;;;5038699;28;20533;-82
2021/06/26 00:43:56;;;;;;;16.23;7.28;;;16.90;99.90;;;;;;5056625;28;20025;-82
2021/06/26 00:46:21;;;;;;;12.05;7.50;;;16.80;99.90;;;;;;5055285;28;20020;-82
2021/06/26 00:48:47;;;;;;;10.77;7.03;;;16.90;99.90;;;;;;5055236;28;20126;-82
2021/06/26 00:51:13;;;;;;;9.02;7.20;;;16.90;99.90;;;;;;5056820;28;20032;-82
2021/06/26 00:53:39;;;;;;;10.50;6.90;;;16.90;99.90;;;;;;5056473;28;20021;-83
2021/06/26 00:56:05;;;;;;;11.75;7.35;;;17.00;99.90;;;;;;5055103;28;20021;-82
2021/06/26 00:58:31;;;;;;;9.73;7.07;;;17.10;99.90;;;;;;5056311;28;20095;-82
2021/06/26 01:00:57;;;;;;;14.02;7.00;;;17.00;99.90;;;;;;5055035;28;20052;-82
2021/06/26 01:03:23;;;;;;;8.75;7.10;;;16.90;99.90;;;;;;5054988;28;20057;-82
2021/06/26 01:05:49;;;;;;;14.18;6.72;;;16.90;99.90;;;;;;5056556;28;20024;-82
2021/06/26 01:08:14;;;;;;;8.50;6.50;;;16.90;99.90;;;;;;5056463;28;20025;-82
2021/06/26 01:10:40;;;;;;;10.27;6.70;;;16.90;99.90;;;;;;5056387;28;20100;-82
2021/06/26 01:13:06;;;;;;;10.48;7.05;;;16.90;99.90;;;;;;5056392;28;20480;-82
2021/06/26 01:15:33;;;;;;;8.68;6.97;;;16.90;99.90;;;;;;5054848;28;20094;-82
2021/06/26 01:17:59;;;;;;;12.82;6.90;;;16.90;99.90;;;;;;5054761;28;20029;-83
2021/06/26 01:20:25;;;;;;;12.13;6.88;;;16.80;99.90;;;;;;5054683;28;20021;-82
2021/06/26 01:22:55;;;;;;;12.02;6.70;;;16.90;99.90;;;;;;5054597;28;20029;-82
2021/06/26 01:25:22;;;;;;;9.95;7.28;;;16.80;99.90;;;;;;5054658;28;20028;-82
2021/06/26 01:27:49;;;;;;;8.50;6.72;;;17.00;99.90;;;;;;5054521;28;20029;-82
2021/06/26 01:30:18;;;;;;;13.68;6.85;;;16.90;99.90;;;;;;5054527;28;20053;-82
2021/06/26 01:32:43;;;;;;;13.95;6.40;;;17.00;99.90;;;;;;5055975;28;20025;-82
2021/06/26 01:35:10;;;;;;;7.78;6.70;;;17.00;99.90;;;;;;5054136;28;20047;-82
2021/06/26 01:37:40;;;;;;;10.48;6.65;;;16.90;99.90;;;;;;5053310;28;20062;-82
2021/06/26 01:40:07;;;;;;;8.98;6.63;;;16.90;99.90;;;;;;5054288;28;20025;-82
2021/06/26 01:42:33;;;;;;;7.47;6.55;;;16.90;99.90;;;;;;5054195;28;20439;-83
2021/06/26 01:44:59;;;;;;;10.18;6.85;;;16.90;99.90;;;;;;5055783;28;20029;-82
2021/06/26 01:47:24;;;;;;;12.57;6.85;;;17.00;99.90;;;;;;5054736;28;20518;-82
2021/06/26 01:49:50;;;;;;;7.53;6.72;;;17.00;99.90;;;;;;5055915;28;20037;-83
2021/06/26 01:52:16;;;;;;;10.25;6.68;;;17.00;99.90;;;;;;5054064;28;20021;-82
2021/06/26 01:54:41;;;;;;;13.13;7.00;;;17.10;99.90;;;;;;5055331;28;20430;-82
2021/06/26 01:57:09;;;;;;;9.10;7.15;;;17.00;99.90;;;;;;5055813;28;20029;-82
2021/06/26 01:59:35;;;;;;;9.35;7.20;;;16.90;99.90;;;;;;5055238;28;20020;-83
2021/06/26 02:02:01;;;;;;;8.15;7.32;;;16.90;99.90;;;;;;5053838;28;20391;-82
2021/06/26 02:04:27;;;;;;;11.32;7.30;;;17.00;99.90;;;;;;5053875;28;20028;-82
2021/06/26 02:06:53;;;;;;;14.15;6.68;;;16.90;99.90;;;;;;5053844;28;20025;-82
2021/06/26 02:09:18;;;;;;;12.48;7.50;;;16.70;99.90;;;;;;5053774;28;20534;-82
2021/06/26 02:11:44;;;;;;;11.65;7.32;;;16.70;99.90;;;;;;5055290;28;20365;-82
2021/06/26 02:14:11;;;;;;;12.77;7.28;;;16.50;99.90;;;;;;5054964;28;20032;-82
2021/06/26 02:16:37;;;;;;;9.52;7.35;;;16.50;99.90;;;;;;5055208;28;20017;-82
2021/06/26 02:19:03;;;;;;;11.00;7.32;;;16.50;99.90;;;;;;5053573;28;20047;-82
2021/06/26 02:21:29;;;;;;;8.75;6.03;;;16.60;99.90;;;;;;5054816;28;20024;-82
2021/06/26 02:23:54;;;;;;;13.70;7.60;;;16.80;99.90;;;;;;5053477;28;20048;-82
2021/06/26 02:26:20;;;;;;;8.23;6.72;;;16.80;99.90;;;;;;5053431;28;20024;-82
2021/06/26 02:28:46;;;;;;;12.02;6.82;;;17.00;99.90;;;;;;5054923;28;20029;-82
2021/06/26 02:31:11;;;;;;;13.77;7.10;;;16.90;99.90;;;;;;5054650;28;20060;-82
2021/06/26 02:33:37;;;;;;;9.18;7.35;;;17.00;99.90;;;;;;5054518;28;20025;-82
2021/06/26 02:36:03;;;;;;;10.98;7.43;;;17.00;99.90;;;;;;5041367;28;20100;-82
2021/06/26 02:38:29;;;;;;;11.13;7.05;;;16.70;99.90;;;;;;5034451;28;20442;-82
2021/06/26 02:40:54;;;;;;;10.77;7.18;;;16.80;99.90;;;;;;5034768;28;20107;-79
2021/06/26 02:43:20;;;;;;;11.38;7.22;;;16.70;99.90;;;;;;5035008;28;20029;-79
2021/06/26 02:45:46;;;;;;;9.60;7.70;;;16.70;99.90;;;;;;5034650;28;20021;-79
2021/06/26 02:48:12;;;;;;;14.07;7.43;;;16.70;99.90;;;;;;5034592;28;20040;-79
2021/06/26 02:50:38;;;;;;;11.68;7.40;;;16.70;99.90;;;;;;5034280;28;20026;-79
2021/06/26 02:53:04;;;;;;;9.23;7.30;;;16.70;99.90;;;;;;5034503;28;20033;-79
2021/06/26 02:55:30;;;;;;;14.35;7.35;;;16.90;99.90;;;;;;5017330;28;20056;-79
2021/06/26 02:57:57;;;;;;;16.98;7.47;;;16.70;99.90;;;;;;5016431;28;20026;-79
2021/06/26 03:00:23;;;;;;;11.35;8.05;;;16.70;99.90;;;;;;5034134;28;20484;-79
2021/06/26 03:02:49;;;;;;;16.73;8.23;;;16.60;99.90;;;;;;5016335;28;20087;-79
2021/06/26 03:05:14;;;;;;;11.57;7.65;;;16.40;99.90;;;;;;5034078;28;20026;-79
2021/06/26 03:07:48;;;;;;;13.73;8.05;;;16.30;99.90;;;;;;5016339;28;20029;-79
2021/06/26 03:10:13;;;;;;;15.93;8.17;;;16.20;99.90;;;;;;5034009;28;20021;-79
2021/06/26 03:12:39;;;;;;;13.75;8.27;;;16.20;99.90;;;;;;5016250;28;20260;-79
2021/06/26 03:15:05;;;;;;;12.13;6.97;;;16.20;99.90;;;;;;5016130;28;20037;-79
2021/06/26 03:17:31;;;;;;;11.68;7.78;;;16.60;99.90;;;;;;5016037;28;20026;-79
2021/06/26 03:19:57;;;;;;;15.00;7.70;;;16.60;99.90;;;;;;5016034;28;20116;-79
2021/06/26 03:22:22;;;;;;;16.55;7.60;;;16.60;99.90;;;;;;5033736;28;20079;-79
2021/06/26 03:24:48;;;;;;;10.20;7.85;;;16.70;99.90;;;;;;5034003;28;20021;-79
2021/06/26 03:27:15;;;;;;;14.15;8.10;;;16.60;99.90;;;;;;5033691;28;20025;-79
2021/06/26 03:29:41;;;;;;;8.20;7.40;;;16.40;99.90;;;;;;5015882;28;20370;-79
2021/06/26 03:32:07;;;;;;;13.20;8.13;;;16.50;99.90;;;;;;5015855;28;20031;-79
2021/06/26 03:34:33;;;;;;;8.32;7.38;;;16.60;99.90;;;;;;5033322;28;20030;-79
2021/06/26 03:36:59;;;;;;;11.55;8.30;;;16.60;99.90;;;;;;5015776;28;20511;-79
2021/06/26 03:39:24;;;;;;;12.20;8.05;;;16.50;99.90;;;;;;5015821;28;20466;-79
2021/06/26 03:41:50;;;;;;;9.85;6.95;;;16.50;99.90;;;;;;5015697;28;20057;-79
2021/06/26 03:44:16;;;;;;;15.10;7.47;;;16.70;99.90;;;;;;5015759;28;20024;-79
2021/06/26 03:46:43;;;;;;;16.70;7.65;;;16.80;99.90;;;;;;5015736;28;20029;-79
2021/06/26 03:49:09;;;;;;;20.90;8.75;;;16.40;99.90;;;;;;5015739;28;20053;-79
2021/06/26 03:51:34;;;;;;;12.10;8.18;;;16.30;99.90;;;;;;5033314;28;20060;-79
2021/06/26 03:54:00;;;;;;;12.52;8.35;;;16.20;99.90;;;;;;5015642;28;20028;-79
2021/06/26 03:56:26;;;;;;;11.38;7.80;;;16.10;99.90;;;;;;5033299;28;20053;-79
2021/06/26 03:58:51;;;;;;;13.23;7.68;;;16.00;99.90;;;;;;5015481;28;20497;-79
2021/06/26 04:01:17;;;;;;;12.52;8.45;;;16.00;99.90;;;;;;5032717;28;20071;-79
2021/06/26 04:03:44;;;;;;;12.02;7.63;;;16.10;99.90;;;;;;5015526;28;20017;-79
2021/06/26 04:06:10;;;;;;;11.65;7.07;;;16.00;99.90;;;;;;5015505;28;20107;-79
2021/06/26 04:08:35;;;;;;;15.98;8.05;;;16.20;99.90;;;;;;5015503;28;20033;-79
2021/06/26 04:11:01;;;;;;;12.50;7.15;;;16.30;99.90;;;;;;5033419;28;20036;-79
2021/06/26 04:13:27;;;;;;;20.95;7.82;;;16.40;99.90;;;;;;5015425;28;20033;-79
2021/06/26 04:15:53;;;;;;;10.63;7.90;;;16.40;99.90;;;;;;5015309;28;20032;-79
2021/06/26 04:18:19;;;;;;;10.18;7.63;;;16.60;99.90;;;;;;5015288;28;20396;-79
2021/06/26 04:20:44;;;;;;;13.75;8.05;;;16.60;99.90;;;;;;5033005;28;20026;-79
2021/06/26 04:23:10;;;;;;;11.05;7.93;;;16.30;99.90;;;;;;5015372;28;20053;-79
2021/06/26 04:25:37;;;;;;;13.07;7.97;;;16.20;99.90;;;;;;5015302;28;20362;-79
2021/06/26 04:28:11;;;;;;;11.27;8.07;;;16.10;99.90;;;;;;5033000;28;20025;-79
2021/06/26 04:30:37;;;;;;;12.77;8.10;;;16.10;99.90;;;;;;5033030;28;20026;-79
2021/06/26 04:33:04;;;;;;;12.55;8.52;;;16.00;99.90;;;;;;5032879;28;20104;-79
2021/06/26 04:35:30;;;;;;;9.02;7.18;;;16.10;99.90;;;;;;5032649;28;20047;-79
2021/06/26 04:37:57;;;;;;;11.52;7.93;;;16.40;99.90;;;;;;5015077;28;20087;-79
2021/06/26 04:40:23;;;;;;;11.43;7.10;;;16.40;99.90;;;;;;5032978;28;20052;-79
2021/06/26 04:42:49;;;;;;;14.18;7.97;;;16.60;99.90;;;;;;5033408;28;20049;-79
2021/06/26 04:45:15;;;;;;;11.85;7.40;;;16.60;99.90;;;;;;5033074;28;20091;-79
2021/06/26 04:47:42;;;;;;;10.18;7.68;;;16.60;99.90;;;;;;5015114;28;20446;-79
2021/06/26 04:50:10;;;;;;;9.55;7.10;;;16.70;99.90;;;;;;5015150;28;20033;-80
2021/06/26 04:52:36;;;;;;;9.98;7.72;;;16.80;99.90;;;;;;5032970;28;20113;-79
2021/06/26 04:55:04;;;;;;;10.23;7.68;;;16.60;99.90;;;;;;5032710;28;20048;-79
2021/06/26 04:57:29;;;;;;;15.30;8.00;;;16.50;99.90;;;;;;5032620;28;20034;-79
2021/06/26 04:59:55;;;;;;;8.85;7.40;;;16.40;99.90;;;;;;5015006;28;20039;-79
2021/06/26 05:02:21;;;;;;;10.82;7.65;;;16.50;99.90;;;;;;5014951;28;20025;-79
2021/06/26 05:04:47;;;;;;;11.85;8.43;;;16.60;99.90;;;;;;5014919;28;20021;-79
2021/06/26 05:07:13;;;;;;;10.57;7.88;;;16.70;99.90;;;;;;5014946;28;20117;-79
2021/06/26 05:09:39;;;;;;;9.65;7.60;;;16.80;99.90;;;;;;5032589;28;20032;-79
2021/06/26 05:12:05;;;;;;;10.52;8.10;;;17.00;99.90;;;;;;5014863;28;20520;-79
2021/06/26 05:14:31;;;;;;;9.98;7.47;;;16.90;99.90;;;;;;5018123;28;20030;-79
2021/06/26 05:16:57;;;;;;;13.32;8.43;;;16.90;99.90;;;;;;5018431;28;20033;-79
2021/06/26 05:19:23;;;;;;;11.15;7.85;;;16.80;99.90;;;;;;5018559;28;20026;-79
2021/06/26 05:21:48;;;;;;;10.30;8.32;;;16.80;99.90;;;;;;5036017;28;20017;-79
2021/06/26 05:24:14;;;;;;;13.40;9.15;;;16.80;99.90;;;;;;5036366;28;20519;-79
2021/06/26 05:26:40;;;;;;;11.45;8.50;;;17.00;99.90;;;;;;5036205;28;20026;-79
2021/06/26 05:29:06;;;;;;;10.70;8.98;;;17.00;99.90;;;;;;5035856;28;20057;-79
2021/06/26 05:31:31;;;;;;;10.43;8.38;;;17.00;99.90;;;;;;5036062;28;20473;-79
2021/06/26 05:33:58;;;;;;;12.63;8.20;;;17.00;99.90;;;;;;5035739;28;20025;-79
2021/06/26 05:36:24;;;;;;;16.15;9.43;;;17.10;99.90;;;;;;5046099;28;20045;-79
2021/06/26 05:38:50;;;;;;;18.00;9.45;;;17.20;99.90;;;;;;5054371;28;20480;-79
2021/06/26 05:41:16;;;;;;;12.90;8.88;;;17.30;99.90;;;;;;5054338;28;20021;-79
2021/06/26 05:43:42;;;;;;;12.07;8.23;;;17.30;99.90;;;;;;5055817;28;20495;-81
2021/06/26 05:46:08;;;;;;;9.85;8.85;;;17.50;99.90;;;;;;5054247;28;20365;-79
2021/06/26 05:48:34;;;;;;;10.85;8.68;;;17.50;99.90;;;;;;5054154;28;20025;-79
2021/06/26 05:50:59;;;;;;;13.50;9.57;;;17.60;99.90;;;;;;5054403;28;20407;-79
2021/06/26 05:53:25;;;;;;;15.95;9.82;;;17.60;99.90;;;;;;5054144;28;20032;-79
2021/06/26 05:55:58;;;;;;;14.52;9.80;;;17.60;99.90;;;;;;5054029;28;20025;-79
2021/06/26 05:58:36;;;;;;;14.63;10.48;;;17.70;99.90;;;;;;5054004;28;20029;-79
2021/06/26 06:01:03;;;;;;;15.70;10.25;;;17.80;99.90;;;;;;5053927;28;20078;-79
2021/06/26 06:03:29;;;;;;;15.63;11.55;;;17.90;99.90;;;;;;5053920;28;20052;-79
2021/06/26 06:05:54;;;;;;;12.95;10.95;;;18.00;99.90;;;;;;5055167;28;20057;-80
2021/06/26 06:08:20;;;;;;;13.52;11.40;;;18.00;99.90;;;;;;5055031;28;20032;-79
2021/06/26 06:10:47;;;;;;;12.55;10.32;;;18.00;99.90;;;;;;5053757;28;20025;-79
2021/06/26 06:13:14;;;;;;;16.25;11.80;;;18.20;99.90;;;;;;5053696;28;20439;-79
2021/06/26 06:15:41;;;;;;;10.65;9.35;;;18.30;99.90;;;;;;5053639;28;20477;-79
2021/06/26 06:18:07;;;;;;;17.27;12.85;;;18.50;99.90;;;;;;5053601;28;20021;-80
2021/06/26 06:20:33;;;;;;;13.88;11.05;;;18.30;99.90;;;;;;5054879;28;20385;-79
2021/06/26 06:22:58;;;;;;;13.95;11.63;;;18.10;99.90;;;;;;5053473;28;20017;-80
2021/06/26 06:25:24;;;;;;;12.20;10.07;;;18.20;99.90;;;;;;5054402;28;20021;-79
2021/06/26 06:27:50;;;;;;;16.35;11.45;;;18.40;99.90;;;;;;5054984;28;20029;-79
2021/06/26 06:30:16;;;;;;;16.75;11.70;;;18.40;99.90;;;;;;5053392;28;20119;-79
2021/06/26 06:32:41;;;;;;;14.23;11.48;;;18.40;99.90;;;;;;5054862;28;20465;-79
2021/06/26 06:35:08;;;;;;;13.95;11.02;;;18.50;99.90;;;;;;5052976;28;20037;-79
2021/06/26 06:37:34;;;;;;;15.10;11.73;;;18.50;99.90;;;;;;5053249;28;20037;-78
2021/06/26 06:40:00;;;;;;;18.38;12.63;;;18.70;99.90;;;;;;5053221;28;20025;-78
2021/06/26 06:42:26;;;;;;;16.02;11.13;;;18.80;99.90;;;;;;5054399;28;20048;-78
2021/06/26 06:44:51;;;;;;;16.13;11.82;;;18.80;99.90;;;;;;5053083;28;20557;-78
2021/06/26 06:47:17;;;;;;;17.65;10.98;;;18.80;99.90;;;;;;5052960;28;20033;-78
2021/06/26 06:49:43;;;;;;;14.90;11.57;;;18.70;99.90;;;;;;5054290;28;20032;-78
2021/06/26 06:52:08;;;;;;;12.98;10.30;;;18.60;99.90;;;;;;5052945;28;20104;-78
2021/06/26 06:54:34;;;;;;;14.57;11.50;;;18.60;99.90;;;;;;5054177;28;20384;-78
2021/06/26 06:57:00;;;;;;;16.13;12.68;;;18.60;99.90;;;;;;5054260;28;20029;-78
2021/06/26 06:59:25;;;;;;;15.98;12.35;;;18.80;99.90;;;;;;5052759;28;20070;-78
2021/06/26 07:01:51;;;;;;;14.48;11.35;;;18.80;99.90;;;;;;5052748;28;20021;-79
2021/06/26 07:04:17;;;;;;;14.52;12.00;;;19.00;99.90;;;;;;5052699;28;20021;-78
2021/06/26 07:06:42;;;;;;;11.25;9.13;;;19.30;99.90;;;;;;5052592;28;20429;-77
2021/06/26 07:09:08;;;;;;;19.10;13.38;;;19.40;99.90;;;;;;5054260;28;20095;-78
2021/06/26 07:11:34;;;;;;;18.75;13.95;;;19.50;99.90;;;;;;5053720;28;20108;-78
2021/06/26 07:13:59;;;;;;;19.17;13.48;;;19.50;99.90;;;;;;5053669;28;20055;-78
2021/06/26 07:16:25;;;;;;;20.83;13.20;;;19.70;99.90;;;;;;5052514;28;20024;-78
2021/06/26 07:18:51;;;;;;;17.67;12.80;;;19.80;99.90;;;;;;5052470;28;20397;-78
2021/06/26 07:21:17;;;;;;;16.60;12.35;;;20.00;99.90;;;;;;5052431;28;20017;-78
2021/06/26 07:23:42;;;;;;;16.10;12.00;;;20.20;99.90;;;;;;5052400;28;20028;-78
2021/06/26 07:26:08;;;;;;;15.60;12.52;;;20.40;99.90;;;;;;5053604;28;20017;-78
2021/06/26 07:28:34;;;;;;;19.80;14.05;;;20.40;99.90;;;;;;5053916;28;20494;-77
2021/06/26 07:30:59;;;;;;;14.40;12.63;;;20.40;99.90;;;;;;5052284;28;20060;-77
2021/06/26 07:33:25;;;;;;;16.17;12.50;;;20.40;99.90;;;;;;5052250;28;20021;-78
2021/06/26 07:35:51;;;;;;;16.15;12.88;;;20.40;99.90;;;;;;5051276;28;20484;-78
2021/06/26 07:38:16;;;;;;;15.90;11.95;;;20.50;99.90;;;;;;5053389;28;20029;-77
2021/06/26 07:40:42;;;;;;;15.10;12.10;;;20.30;99.90;;;;;;5053479;28;20025;-77
2021/06/26 07:43:08;;;;;;;13.82;11.38;;;20.20;99.90;;;;;;5052124;28;20480;-78
2021/06/26 07:45:33;;;;;;;11.80;9.63;;;20.40;99.90;;;;;;5052142;28;20028;-77
2021/06/26 07:47:59;;;;;;;12.65;9.48;;;20.60;99.90;;;;;;5052063;28;20025;-78
2021/06/26 07:50:25;;;;;;;10.88;9.48;;;20.80;99.90;;;;;;5053297;28;20024;-78
2021/06/26 07:52:51;;;;;;;14.60;9.48;;;21.00;99.90;;;;;;5052011;28;20029;-78
2021/06/26 07:55:16;;;;;;;12.93;9.05;;;21.10;99.90;;;;;;5053211;28;20035;-78
2021/06/26 07:57:42;;;;;;;12.32;9.65;;;21.20;99.90;;;;;;5053114;28;20029;-78
2021/06/26 08:00:08;;;;;;;10.52;9.27;;;21.20;99.90;;;;;;5051830;28;20384;-78
2021/06/26 08:02:35;;;;;;;11.15;8.50;;;21.00;99.90;;;;;;5035284;28;20031;-80
2021/06/26 08:05:01;;;;;;;13.20;9.05;;;21.10;99.90;;;;;;5053409;28;20093;-78
2021/06/26 08:07:26;;;;;;;8.43;6.90;;;21.20;99.90;;;;;;5053312;28;20416;-78
2021/06/26 08:09:52;;;;;;;9.32;7.32;;;21.30;99.90;;;;;;5053071;28;20056;-79
2021/06/26 08:12:18;;;;;;;9.85;8.27;;;21.40;99.90;;;;;;5053032;28;20036;-79
2021/06/26 08:14:44;;;;;;;10.63;8.27;;;21.70;99.90;;;;;;5053254;28;20064;-79
2021/06/26 08:17:11;;;;;;;10.75;7.63;;;21.80;99.90;;;;;;5051648;28;20090;-79
2021/06/26 08:19:37;;;;;;;7.95;7.05;;;22.10;99.90;;;;;;5052982;28;20086;-79
2021/06/26 08:22:05;;;;;;;9.63;7.15;;;22.10;99.90;;;;;;5051710;28;20029;-79
2021/06/26 08:24:31;;;;;;;8.05;6.95;;;22.00;99.90;;;;;;5053203;28;20021;-80
2021/06/26 08:26:57;;;;;;;7.30;6.55;;;21.90;99.90;;;;;;5051631;28;20056;-79
2021/06/26 08:29:23;;;;;;;9.35;6.95;;;21.90;99.90;;;;;;5053188;28;20033;-79
2021/06/26 08:31:48;;;;;;;11.43;7.38;;;22.00;99.90;;;;;;5052876;28;20067;-79
2021/06/26 08:34:14;;;;;;;12.40;7.28;;;22.10;99.90;;;;;;5052811;28;20108;-79
2021/06/26 08:36:40;;;;;;;8.15;6.40;;;22.00;99.90;;;;;;5051370;28;20068;-79
2021/06/26 08:39:06;;;;;;;7.93;6.32;;;22.10;99.90;;;;;;5053056;28;20037;-79
2021/06/26 08:41:39;;;;;;;8.85;6.20;;;22.10;99.90;;;;;;5053281;28;20377;-79
2021/06/26 08:44:06;;;;;;;6.32;5.72;;;22.10;99.90;;;;;;5052763;28;20092;-79
2021/06/26 08:46:37;;;;;;;9.27;6.85;;;22.00;99.90;;;;;;5051909;28;20037;-79
2021/06/26 08:49:03;;;;;;;6.72;5.95;;;22.00;99.90;;;;;;5055370;28;20032;-79
2021/06/26 08:51:29;;;;;;;7.22;6.50;;;22.10;99.90;;;;;;5056516;28;20132;-79
2021/06/26 08:53:54;;;;;;;7.68;6.88;;;22.20;99.90;;;;;;5056494;28;20147;-79
2021/06/26 08:56:20;;;;;;;10.13;7.25;;;22.40;99.90;;;;;;5055403;28;20025;-79
2021/06/26 08:58:46;;;;;;;10.93;6.53;;;22.20;99.90;;;;;;5056333;28;20025;-79
2021/06/26 09:01:11;;;;;;;7.88;7.03;;;22.30;99.90;;;;;;5056636;28;20020;-79
2021/06/26 09:03:37;;;;;;;8.55;6.60;;;22.40;99.90;;;;;;5055058;28;20021;-79
2021/06/26 09:06:06;;;;;;;7.03;5.90;;;22.50;99.90;;;;;;5056254;28;20376;-79
2021/06/26 09:08:32;;;;;;;8.00;6.57;;;22.60;99.90;;;;;;5055473;28;20117;-78
2021/06/26 09:10:59;;;;;;;8.52;7.63;;;22.60;99.90;;;;;;5056445;28;20032;-79
2021/06/26 09:13:33;;;;;;;7.32;6.28;;;22.80;99.90;;;;;;5054843;28;20480;-79
2021/06/26 09:16:13;;;;;;;6.53;5.93;;;22.90;99.90;;;;;;5056151;28;20031;-79
2021/06/26 09:18:41;;;;;;;6.85;5.75;;;23.10;99.90;;;;;;5056345;28;20104;-79
2021/06/26 09:21:29;;;;;;;6.57;5.95;;;23.30;99.90;;;;;;5054764;28;20369;-79
2021/06/26 09:24:08;;;;;;;6.85;5.70;;;23.30;99.90;;;;;;5054733;28;20078;-79
2021/06/26 09:26:37;;;;;;;7.90;5.75;;;23.20;99.90;;;;;;5054686;28;20025;-79
2021/06/26 09:29:14;;;;;;;6.57;5.82;;;23.20;99.90;;;;;;5055818;28;20035;-79
2021/06/26 09:31:54;;;;;;;6.88;5.75;;;23.20;99.90;;;;;;5054560;28;20496;-79
2021/06/26 09:34:24;;;;;;;6.55;5.80;;;23.20;99.90;;;;;;5054487;28;20028;-79
2021/06/26 09:37:00;;;;;;;6.20;5.35;;;23.40;99.90;;;;;;5036197;28;20489;-79
2021/06/26 09:39:38;;;;;;;7.80;5.20;;;23.70;99.90;;;;;;5017951;28;20489;-79
2021/06/26 09:42:21;;;;;;;6.00;4.55;;;23.90;99.90;;;;;;5017979;28;20018;-79
2021/06/26 09:44:58;;;;;;;7.18;5.20;;;24.10;99.90;;;;;;5035594;28;20029;-79
2021/06/26 09:47:45;;;;;;;5.45;4.95;;;24.00;99.90;;;;;;5017825;28;20365;-79
2021/06/26 09:50:19;;;;;;;6.00;5.38;;;24.10;99.90;;;;;;5035725;28;20381;-79
2021/06/26 09:52:51;;;;;;;6.20;4.97;;;24.20;99.90;;;;;;5017664;28;20235;-79
2021/06/26 09:55:24;;;;;;;5.68;4.97;;;24.20;99.90;;;;;;5035346;28;20022;-80
2021/06/26 09:57:59;;;;;;;5.78;4.93;;;24.10;99.90;;;;;;5034970;28;20481;-79
2021/06/26 10:00:27;;;;;;;5.90;5.25;;;24.20;99.90;;;;;;5035037;28;20025;-79
2021/06/26 10:02:54;;;;;;;6.05;5.07;;;24.10;99.90;;;;;;5017525;28;20504;-79
2021/06/26 10:05:20;;;;;;;6.97;5.70;;;23.90;99.90;;;;;;5017501;28;20047;-79
2021/06/26 10:07:48;;;;;;;7.93;5.22;;;23.60;99.90;;;;;;5017470;28;20025;-79
2021/06/26 10:10:16;;;;;;;5.88;5.22;;;23.40;99.90;;;;;;5017372;28;20102;-79
2021/06/26 10:12:42;;;;;;;6.25;5.28;;;23.50;99.90;;;;;;5035068;28;20104;-79
2021/06/26 10:15:10;;;;;;;6.93;6.13;;;24.00;99.90;;;;;;5035310;28;20475;-79
2021/06/26 10:17:37;;;;;;;6.65;5.97;;;24.10;99.90;;;;;;5034910;28;20021;-79
2021/06/26 10:20:11;;;;;;;9.13;6.40;;;24.00;99.90;;;;;;5034897;28;20026;-79
2021/06/26 10:22:40;;;;;;;6.68;5.82;;;23.80;99.90;;;;;;5016744;28;20022;-79
2021/06/26 10:25:08;;;;;;;7.22;5.97;;;23.90;99.90;;;;;;5035068;28;20083;-79
2021/06/26 10:27:34;;;;;;;9.95;6.78;;;23.80;99.90;;;;;;5034726;28;20071;-79
2021/06/26 10:30:16;;;;;;;6.10;5.50;;;23.50;99.90;;;;;;5016858;28;20032;-79
2021/06/26 10:33:00;;;;;;;7.65;5.68;;;24.00;99.90;;;;;;5016854;28;20443;-79
2021/06/26 10:35:30;;;;;;;6.93;6.10;;;24.10;99.90;;;;;;5028943;28;20121;-79
2021/06/26 10:38:10;;;;;;;6.85;5.20;;;24.10;99.90;;;;;;5053223;28;20065;-79
2021/06/26 10:40:42;;;;;;;6.53;5.38;;;24.70;99.90;;;;;;5054562;28;20025;-79
2021/06/26 10:43:27;;;;;;;5.82;4.78;;;25.00;99.90;;;;;;5053370;28;20055;-79
2021/06/26 10:46:07;;;;;;;8.18;6.40;;;24.80;99.90;;;;;;5053100;28;20035;-79
2021/06/26 10:48:33;;;;;;;6.55;5.53;;;24.10;99.90;;;;;;5054310;28;20024;-79
2021/06/26 10:50:59;;;;;;;5.10;4.60;;;23.90;99.90;;;;;;5053051;28;20504;-79
2021/06/26 10:53:41;;;;;;;7.43;5.63;;;23.90;99.90;;;;;;5054499;28;20106;-79
2021/06/26 10:56:16;;;;;;;6.78;5.32;;;24.30;99.90;;;;;;5054211;28;20029;-79
2021/06/26 10:58:44;;;;;;;5.95;4.72;;;24.50;99.90;;;;;;5054406;28;20032;-79
2021/06/26 11:01:21;;;;;;;6.65;5.03;;;25.30;99.90;;;;;;5054139;28;20025;-79
2021/06/26 11:03:50;;;;;;;6.75;4.85;;;25.50;99.90;;;;;;5054084;28;20017;-79
2021/06/26 11:06:27;;;;;;;6.45;4.70;;;24.60;99.90;;;;;;5053979;28;20095;-79
2021/06/26 11:09:06;;;;;;;5.20;4.70;;;24.40;99.90;;;;;;5052697;28;20037;-79
2021/06/26 11:11:36;;;;;;;6.20;4.32;;;24.20;99.90;;;;;;5052635;28;20021;-79
2021/06/26 11:14:19;;;;;;;10.35;4.35;;;23.80;99.90;;;;;;5053909;28;20017;-79
2021/06/26 11:16:58;;;;;;;6.80;4.72;;;23.70;99.90;;;;;;5052462;28;20104;-79
2021/06/26 11:19:29;;;;;;;6.07;5.05;;;23.40;99.90;;;;;;5052498;28;20060;-79
2021/06/26 11:21:57;;;;;;;6.07;4.70;;;23.30;99.90;;;;;;5054235;28;20027;-79
2021/06/26 11:24:41;;;;;;;4.63;3.83;;;23.60;99.90;;;;;;5052259;28;20032;-79
2021/06/26 11:27:12;;;;;;;4.57;4.15;;;25.00;99.90;;;;;;5053609;28;20528;-80
2021/06/26 11:29:42;;;;;;;4.45;3.90;;;26.00;99.90;;;;;;5052360;28;20163;-80
2021/06/26 11:32:22;;;;;;;4.00;3.70;;;25.60;99.90;;;;;;5053860;28;20044;-79
2021/06/26 11:35:11;;;;;;;4.63;4.20;;;25.10;99.90;;;;;;5049370;28;20027;-79
2021/06/26 11:37:45;;;;;;;5.70;5.05;;;24.80;99.90;;;;;;5015834;28;20404;-79
2021/06/26 11:40:15;;;;;;;5.15;4.47;;;24.60;99.90;;;;;;5033775;28;20448;-79
2021/06/26 11:42:53;;;;;;;5.63;4.60;;;24.10;99.90;;;;;;5033338;28;20018;-79
2021/06/26 11:45:29;;;;;;;5.15;4.63;;;23.90;99.90;;;;;;5015709;28;20028;-79
2021/06/26 11:48:18;;;;;;;5.97;4.50;;;24.10;99.90;;;;;;5015657;28;20489;-79
2021/06/26 11:50:53;;;;;;;5.82;3.97;;;24.20;99.90;;;;;;5033969;28;20021;-79
2021/06/26 11:53:22;;;;;;;5.78;4.00;;;24.40;99.90;;;;;;5033691;28;20060;-79
2021/06/26 11:56:00;;;;;;;5.10;4.22;;;25.10;99.90;;;;;;5015616;28;20029;-79
2021/06/26 11:58:43;;;;;;;5.25;4.03;;;26.00;99.90;;;;;;5015609;28;20036;-79
2021/06/26 12:01:29;;;;;;;7.32;5.70;;;26.70;99.90;;;;;;5033267;28;20017;-79
2021/06/26 12:03:56;;;;;;;5.80;3.90;;;26.80;99.90;;;;;;5015501;28;20067;-79
2021/06/26 12:06:22;;;;;;;8.30;3.72;;;26.30;99.90;;;;;;5015392;28;20022;-80
2021/06/26 12:08:52;;;;;;;6.57;4.15;;;26.20;99.90;;;;;;5015501;28;20040;-79
2021/06/26 12:11:22;;;;;;;4.70;3.70;;;26.80;99.90;;;;;;5033435;28;20492;-80
2021/06/26 12:13:50;;;;;;;4.57;3.70;;;26.60;99.90;;;;;;5033416;28;20033;-80
2021/06/26 12:16:19;;;;;;;5.40;3.47;;;26.60;99.90;;;;;;5033085;28;20026;-80
2021/06/26 12:18:49;;;;;;;3.47;3.17;;;27.20;99.90;;;;;;5015175;28;20032;-80
2021/06/26 12:21:15;;;;;;;5.30;3.90;;;27.60;99.90;;;;;;5015340;28;20116;-79
2021/06/26 12:23:46;;;;;;;5.85;3.88;;;27.40;99.90;;;;;;5037146;28;20425;-80
2021/06/26 12:26:18;;;;;;;5.75;3.50;;;27.30;99.90;;;;;;5037040;28;20022;-79
2021/06/26 12:28:44;;;;;;;4.88;3.60;;;27.60;99.90;;;;;;5019223;28;20036;-80
2021/06/26 12:31:10;;;;;;;3.95;3.28;;;27.40;99.90;;;;;;5037583;28;20097;-79
2021/06/26 12:33:37;;;;;;;5.53;3.80;;;26.90;99.90;;;;;;5037147;28;20060;-79
2021/06/26 12:36:16;;;;;;;4.40;4.00;;;27.70;99.90;;;;;;5041189;28;20049;-79
2021/06/26 12:38:43;;;;;;;4.25;3.58;;;28.10;99.90;;;;;;5055473;28;20130;-79
2021/06/26 12:41:19;;;;;;;6.70;3.78;;;28.60;99.90;;;;;;5055481;28;20025;-79
2021/06/26 12:43:45;;;;;;;4.13;3.72;;;28.60;99.90;;;;;;5055573;28;20036;-80